Boaz, AL

4:57 PM CST on February 07, 2016 (GMT -0600)
Double Bridges | | Change Station
CLOSE
Current Station
Personal Weather Station
Location: Boaz, AL
Elevation: 1083 ft
Nearby Weather Stations

Elev 1083 ft 34.22 °N, 86.13 °W | Updated 9 minutes ago

Clear
Clear
51.8 °F
Feels Like 51.8 °F
N
2.7
Wind Variable Wind from West

Today
High -- | Low -- °F
--% Chance of Precip.
Yesterday
High -- | Low -- °F
Precip. -- in
Pressure 30.01 in
Visibility 10.0 miles
Clouds Clear
Dew Point 29 °F
Humidity 41%
Rainfall 0.00 in
Snow Depth Not available.
6:37 AM 5:20 PM
Waning Crescent, 1% visible
METAR K8A0 072235Z AUTO 25008G14KT 10SM CLR 11/M01 A3001 RMK AO2
Pressure 30.01 in
Visibility 10.0 miles
Clouds Clear
Dew Point 29 °F
Humidity 41%
Rainfall 0.00 in
Snow Depth Not available.
6:37 AM 5:20 PM
Waning Crescent, 1% visible
METAR K8A0 072235Z AUTO 25008G14KT 10SM CLR 11/M01 A3001 RMK AO2

10-Day Weather Forecast

Almanac

Astronomy

Feb. 07, 2016 Rise Set
Actual Time
Civil Twilight
Nautical Twilight
Astronomical Twilight
Moon
Length of Visible Light
Length of Day
Tomorrow will be .
, % of the Moon is Illuminated

Today's Extremes

State Highs State Lows

Community

WunderPhotos

Upload Photos

1,891,323 photos uploaded!

WunderBlog® & News

Nearby

Air Quality

  Air Quality AQ Index Pollutant
Not available.

Snow Depth

Station Depth Elevation

Earthquake Activity

City Distance Mag. Time & Date
Minimum magnitude displayed is 2.5.

Coastal Water Temperatures

Place Temperature

Stations

Nearby Weather Stations

Station Location Temp. Windchill Dew Point Humidity Wind Precip. Elev Updated Type
                   

Watches & Warnings

There are currently no watches in effect.